sensor_id;sensor_type;location;lat;lon;timestamp;temperature;humidity
22674;DHT22;11504;43.334;21.918;2023-04-10T00:01:49;10.4;100.0
22674;DHT22;11504;43.334;21.918;2023-04-10T00:06:25;10.4;100.0
22674;DHT22;11504;43.334;21.918;2023-04-10T00:11:02;10.4;100.0
22674;DHT22;11504;43.334;21.918;2023-04-10T00:15:39;10.4;100.0
22674;DHT22;11504;43.334;21.918;2023-04-10T00:20:16;10.3;100.0
22674;DHT22;11504;43.334;21.918;2023-04-10T00:24:52;10.3;100.0
22674;DHT22;11504;43.334;21.918;2023-04-10T00:29:29;10.3;100.0
22674;DHT22;11504;43.334;21.918;2023-04-10T00:34:06;10.3;100.0
22674;DHT22;11504;43.334;21.918;2023-04-10T00:38:43;10.3;100.0
22674;DHT22;11504;43.334;21.918;2023-04-10T00:43:21;10.3;100.0
22674;DHT22;11504;43.334;21.918;2023-04-10T00:47:58;10.3;100.0
22674;DHT22;11504;43.334;21.918;2023-04-10T00:52:35;10.3;100.0
22674;DHT22;11504;43.334;21.918;2023-04-10T00:57:13;10.3;100.0
22674;DHT22;11504;43.334;21.918;2023-04-10T01:01:50;10.3;100.0
22674;DHT22;11504;43.334;21.918;2023-04-10T01:06:34;10.3;100.0
22674;DHT22;11504;43.334;21.918;2023-04-10T01:12:05;10.3;100.0
22674;DHT22;11504;43.334;21.918;2023-04-10T01:17:48;10.3;100.0
22674;DHT22;11504;43.334;21.918;2023-04-10T01:23:08;10.3;100.0
22674;DHT22;11504;43.334;21.918;2023-04-10T01:28:51;10.2;100.0
22674;DHT22;11504;43.334;21.918;2023-04-10T01:33:42;10.2;100.0
22674;DHT22;11504;43.334;21.918;2023-04-10T01:38:34;10.1;100.0
22674;DHT22;11504;43.334;21.918;2023-04-10T01:43:19;10.1;100.0
22674;DHT22;11504;43.334;21.918;2023-04-10T01:48:02;10.0;100.0
22674;DHT22;11504;43.334;21.918;2023-04-10T01:52:40;10.0;100.0
22674;DHT22;11504;43.334;21.918;2023-04-10T01:57:23;10.0;100.0
22674;DHT22;11504;43.334;21.918;2023-04-10T02:02:01;10.0;100.0
22674;DHT22;11504;43.334;21.918;2023-04-10T02:06:43;10.0;100.0
22674;DHT22;11504;43.334;21.918;2023-04-10T02:11:50;10.0;100.0
22674;DHT22;11504;43.334;21.918;2023-04-10T02:16:44;10.0;100.0
22674;DHT22;11504;43.334;21.918;2023-04-10T02:21:29;10.1;100.0
22674;DHT22;11504;43.334;21.918;2023-04-10T02:26:09;10.1;100.0
22674;DHT22;11504;43.334;21.918;2023-04-10T02:30:46;10.1;100.0
22674;DHT22;11504;43.334;21.918;2023-04-10T02:35:24;10.1;100.0
22674;DHT22;11504;43.334;21.918;2023-04-10T02:40:01;10.1;100.0
22674;DHT22;11504;43.334;21.918;2023-04-10T02:44:41;10.1;100.0
22674;DHT22;11504;43.334;21.918;2023-04-10T02:49:17;10.0;100.0
22674;DHT22;11504;43.334;21.918;2023-04-10T02:53:54;10.0;100.0
22674;DHT22;11504;43.334;21.918;2023-04-10T02:58:30;9.9;100.0
22674;DHT22;11504;43.334;21.918;2023-04-10T03:03:07;9.9;100.0
22674;DHT22;11504;43.334;21.918;2023-04-10T03:07:43;9.9;100.0
22674;DHT22;11504;43.334;21.918;2023-04-10T03:12:20;9.9;100.0
22674;DHT22;11504;43.334;21.918;2023-04-10T03:16:57;9.9;100.0
22674;DHT22;11504;43.334;21.918;2023-04-10T03:21:34;9.8;100.0
22674;DHT22;11504;43.334;21.918;2023-04-10T03:26:11;9.8;100.0
22674;DHT22;11504;43.334;21.918;2023-04-10T03:30:49;9.9;100.0
22674;DHT22;11504;43.334;21.918;2023-04-10T03:35:27;9.9;100.0
22674;DHT22;11504;43.334;21.918;2023-04-10T03:40:06;9.9;100.0
22674;DHT22;11504;43.334;21.918;2023-04-10T03:44:47;9.9;100.0
22674;DHT22;11504;43.334;21.918;2023-04-10T03:49:24;9.9;100.0
22674;DHT22;11504;43.334;21.918;2023-04-10T03:54:01;9.9;100.0
22674;DHT22;11504;43.334;21.918;2023-04-10T03:58:38;9.8;100.0
22674;DHT22;11504;43.334;21.918;2023-04-10T04:03:15;9.8;100.0
22674;DHT22;11504;43.334;21.918;2023-04-10T04:07:51;9.8;100.0
22674;DHT22;11504;43.334;21.918;2023-04-10T04:12:27;9.7;100.0
22674;DHT22;11504;43.334;21.918;2023-04-10T04:17:04;9.7;100.0
22674;DHT22;11504;43.334;21.918;2023-04-10T04:21:40;9.6;100.0
22674;DHT22;11504;43.334;21.918;2023-04-10T04:26:16;9.6;100.0
22674;DHT22;11504;43.334;21.918;2023-04-10T04:30:53;9.6;100.0
22674;DHT22;11504;43.334;21.918;2023-04-10T04:35:29;9.6;100.0
22674;DHT22;11504;43.334;21.918;2023-04-10T04:40:07;9.7;100.0
22674;DHT22;11504;43.334;21.918;2023-04-10T04:44:48;9.7;100.0
22674;DHT22;11504;43.334;21.918;2023-04-10T04:49:25;9.8;100.0
22674;DHT22;11504;43.334;21.918;2023-04-10T04:54:02;9.8;100.0
22674;DHT22;11504;43.334;21.918;2023-04-10T04:58:39;9.9;100.0
22674;DHT22;11504;43.334;21.918;2023-04-10T05:03:16;9.9;100.0
22674;DHT22;11504;43.334;21.918;2023-04-10T05:07:53;9.9;100.0
22674;DHT22;11504;43.334;21.918;2023-04-10T05:12:30;10.0;100.0
22674;DHT22;11504;43.334;21.918;2023-04-10T05:17:06;10.0;100.0
22674;DHT22;11504;43.334;21.918;2023-04-10T05:21:43;10.0;100.0
22674;DHT22;11504;43.334;21.918;2023-04-10T05:26:20;10.0;100.0
22674;DHT22;11504;43.334;21.918;2023-04-10T05:30:56;10.2;100.0
22674;DHT22;11504;43.334;21.918;2023-04-10T05:35:33;10.2;100.0
22674;DHT22;11504;43.334;21.918;2023-04-10T05:40:10;10.4;100.0
22674;DHT22;11504;43.334;21.918;2023-04-10T05:44:46;10.4;100.0
22674;DHT22;11504;43.334;21.918;2023-04-10T05:49:24;10.8;100.0
22674;DHT22;11504;43.334;21.918;2023-04-10T05:54:01;10.8;100.0
22674;DHT22;11504;43.334;21.918;2023-04-10T05:58:38;11.2;100.0
22674;DHT22;11504;43.334;21.918;2023-04-10T06:03:15;11.2;100.0
22674;DHT22;11504;43.334;21.918;2023-04-10T06:07:52;11.2;100.0
22674;DHT22;11504;43.334;21.918;2023-04-10T06:12:29;11.7;100.0
22674;DHT22;11504;43.334;21.918;2023-04-10T06:17:05;11.7;100.0
22674;DHT22;11504;43.334;21.918;2023-04-10T06:21:42;12.2;100.0
22674;DHT22;11504;43.334;21.918;2023-04-10T06:26:19;12.2;100.0
22674;DHT22;11504;43.334;21.918;2023-04-10T06:30:56;12.4;100.0
22674;DHT22;11504;43.334;21.918;2023-04-10T06:35:33;12.4;100.0
22674;DHT22;11504;43.334;21.918;2023-04-10T06:40:13;12.5;100.0
22674;DHT22;11504;43.334;21.918;2023-04-10T06:44:50;12.5;100.0
22674;DHT22;11504;43.334;21.918;2023-04-10T06:49:26;13.0;100.0
22674;DHT22;11504;43.334;21.918;2023-04-10T06:54:02;13.0;100.0
22674;DHT22;11504;43.334;21.918;2023-04-10T06:58:39;13.4;100.0
22674;DHT22;11504;43.334;21.918;2023-04-10T07:03:15;13.4;100.0
22674;DHT22;11504;43.334;21.918;2023-04-10T07:07:51;13.4;100.0
22674;DHT22;11504;43.334;21.918;2023-04-10T07:12:28;13.9;100.0
22674;DHT22;11504;43.334;21.918;2023-04-10T07:17:05;13.9;100.0
22674;DHT22;11504;43.334;21.918;2023-04-10T07:21:42;14.4;100.0
22674;DHT22;11504;43.334;21.918;2023-04-10T07:26:19;14.4;100.0
22674;DHT22;11504;43.334;21.918;2023-04-10T07:30:56;15.6;100.0
22674;DHT22;11504;43.334;21.918;2023-04-10T07:35:33;15.6;100.0
22674;DHT22;11504;43.334;21.918;2023-04-10T07:40:10;16.9;100.0
22674;DHT22;11504;43.334;21.918;2023-04-10T07:44:48;16.9;100.0
22674;DHT22;11504;43.334;21.918;2023-04-10T07:49:25;16.5;100.0
22674;DHT22;11504;43.334;21.918;2023-04-10T07:54:02;16.5;100.0
22674;DHT22;11504;43.334;21.918;2023-04-10T07:58:39;16.1;100.0
22674;DHT22;11504;43.334;21.918;2023-04-10T08:03:16;16.1;100.0
22674;DHT22;11504;43.334;21.918;2023-04-10T08:07:52;16.1;100.0
22674;DHT22;11504;43.334;21.918;2023-04-10T08:12:31;17.8;100.0
22674;DHT22;11504;43.334;21.918;2023-04-10T08:17:08;17.8;100.0
22674;DHT22;11504;43.334;21.918;2023-04-10T08:21:45;19.5;100.0
22674;DHT22;11504;43.334;21.918;2023-04-10T08:26:22;19.5;100.0
22674;DHT22;11504;43.334;21.918;2023-04-10T08:31:02;20.2;100.0
22674;DHT22;11504;43.334;21.918;2023-04-10T08:35:41;20.2;100.0
22674;DHT22;11504;43.334;21.918;2023-04-10T08:40:22;20.9;100.0
22674;DHT22;11504;43.334;21.918;2023-04-10T08:44:59;20.9;100.0
22674;DHT22;11504;43.334;21.918;2023-04-10T08:49:47;21.2;100.0
22674;DHT22;11504;43.334;21.918;2023-04-10T08:54:50;21.2;100.0
22674;DHT22;11504;43.334;21.918;2023-04-10T08:59:42;21.6;100.0
22674;DHT22;11504;43.334;21.918;2023-04-10T09:04:20;21.6;100.0
22674;DHT22;11504;43.334;21.918;2023-04-10T09:09:00;20.8;100.0
22674;DHT22;11504;43.334;21.918;2023-04-10T09:13:39;20.8;100.0
22674;DHT22;11504;43.334;21.918;2023-04-10T09:18:19;20.8;100.0
22674;DHT22;11504;43.334;21.918;2023-04-10T09:22:56;20.0;100.0
22674;DHT22;11504;43.334;21.918;2023-04-10T09:27:34;20.0;100.0
22674;DHT22;11504;43.334;21.918;2023-04-10T09:32:11;19.3;100.0
22674;DHT22;11504;43.334;21.918;2023-04-10T09:37:09;19.3;100.0
22674;DHT22;11504;43.334;21.918;2023-04-10T09:41:47;18.6;100.0
22674;DHT22;11504;43.334;21.918;2023-04-10T09:46:29;18.6;100.0
22674;DHT22;11504;43.334;21.918;2023-04-10T09:51:06;18.0;100.0
22674;DHT22;11504;43.334;21.918;2023-04-10T09:56:03;18.0;100.0
22674;DHT22;11504;43.334;21.918;2023-04-10T10:00:44;17.5;100.0
22674;DHT22;11504;43.334;21.918;2023-04-10T10:05:25;17.5;100.0
22674;DHT22;11504;43.334;21.918;2023-04-10T10:10:05;17.4;100.0
22674;DHT22;11504;43.334;21.918;2023-04-10T10:14:51;17.4;100.0
22674;DHT22;11504;43.334;21.918;2023-04-10T10:20:01;17.2;100.0
22674;DHT22;11504;43.334;21.918;2023-04-10T10:24:52;17.2;100.0
22674;DHT22;11504;43.334;21.918;2023-04-10T10:29:38;17.6;100.0
22674;DHT22;11504;43.334;21.918;2023-04-10T10:34:27;17.6;100.0
22674;DHT22;11504;43.334;21.918;2023-04-10T10:39:21;18.0;100.0
22674;DHT22;11504;43.334;21.918;2023-04-10T10:44:43;18.0;100.0
22674;DHT22;11504;43.334;21.918;2023-04-10T10:49:54;17.6;100.0
22674;DHT22;11504;43.334;21.918;2023-04-10T10:54:36;17.6;100.0
22674;DHT22;11504;43.334;21.918;2023-04-10T10:59:12;17.1;100.0
22674;DHT22;11504;43.334;21.918;2023-04-10T11:03:49;17.1;100.0
22674;DHT22;11504;43.334;21.918;2023-04-10T11:08:43;17.1;100.0
22674;DHT22;11504;43.334;21.918;2023-04-10T11:13:25;17.4;100.0
22674;DHT22;11504;43.334;21.918;2023-04-10T11:18:03;17.4;100.0
22674;DHT22;11504;43.334;21.918;2023-04-10T11:23:06;17.7;100.0
22674;DHT22;11504;43.334;21.918;2023-04-10T11:27:47;17.7;100.0
22674;DHT22;11504;43.334;21.918;2023-04-10T11:32:24;17.5;100.0
22674;DHT22;11504;43.334;21.918;2023-04-10T11:37:02;17.5;100.0
22674;DHT22;11504;43.334;21.918;2023-04-10T11:41:40;17.3;100.0
22674;DHT22;11504;43.334;21.918;2023-04-10T11:46:24;17.3;100.0
22674;DHT22;11504;43.334;21.918;2023-04-10T11:51:07;17.2;100.0
22674;DHT22;11504;43.334;21.918;2023-04-10T11:55:49;17.2;100.0
22674;DHT22;11504;43.334;21.918;2023-04-10T12:00:25;17.0;100.0
22674;DHT22;11504;43.334;21.918;2023-04-10T12:05:02;17.0;100.0
22674;DHT22;11504;43.334;21.918;2023-04-10T12:09:41;16.8;100.0
22674;DHT22;11504;43.334;21.918;2023-04-10T12:14:18;16.8;100.0
22674;DHT22;11504;43.334;21.918;2023-04-10T12:18:57;16.6;100.0
22674;DHT22;11504;43.334;21.918;2023-04-10T12:23:36;16.6;100.0
22674;DHT22;11504;43.334;21.918;2023-04-10T12:28:17;16.6;100.0
22674;DHT22;11504;43.334;21.918;2023-04-10T12:32:56;16.4;100.0
22674;DHT22;11504;43.334;21.918;2023-04-10T12:37:46;16.4;100.0
22674;DHT22;11504;43.334;21.918;2023-04-10T12:42:27;16.1;100.0
22674;DHT22;11504;43.334;21.918;2023-04-10T12:47:04;16.1;100.0
22674;DHT22;11504;43.334;21.918;2023-04-10T12:51:44;16.6;100.0
22674;DHT22;11504;43.334;21.918;2023-04-10T12:56:39;16.6;100.0
22674;DHT22;11504;43.334;21.918;2023-04-10T13:01:20;17.0;100.0
22674;DHT22;11504;43.334;21.918;2023-04-10T13:05:57;17.0;100.0
22674;DHT22;11504;43.334;21.918;2023-04-10T13:10:34;17.3;100.0
22674;DHT22;11504;43.334;21.918;2023-04-10T13:15:12;17.3;100.0
22674;DHT22;11504;43.334;21.918;2023-04-10T13:19:49;17.6;100.0
22674;DHT22;11504;43.334;21.918;2023-04-10T13:24:28;17.6;100.0
22674;DHT22;11504;43.334;21.918;2023-04-10T13:29:04;17.2;100.0
22674;DHT22;11504;43.334;21.918;2023-04-10T13:33:42;17.2;100.0
22674;DHT22;11504;43.334;21.918;2023-04-10T13:38:21;17.2;100.0
22674;DHT22;11504;43.334;21.918;2023-04-10T13:42:58;16.7;100.0
22674;DHT22;11504;43.334;21.918;2023-04-10T13:47:34;16.7;100.0
22674;DHT22;11504;43.334;21.918;2023-04-10T13:52:11;16.6;100.0
22674;DHT22;11504;43.334;21.918;2023-04-10T13:56:48;16.6;100.0
22674;DHT22;11504;43.334;21.918;2023-04-10T14:01:25;16.6;100.0
22674;DHT22;11504;43.334;21.918;2023-04-10T14:06:02;16.6;100.0
22674;DHT22;11504;43.334;21.918;2023-04-10T14:10:41;16.6;100.0
22674;DHT22;11504;43.334;21.918;2023-04-10T14:15:21;16.6;100.0
22674;DHT22;11504;43.334;21.918;2023-04-10T14:19:58;16.7;100.0
22674;DHT22;11504;43.334;21.918;2023-04-10T14:24:35;16.7;100.0
22674;DHT22;11504;43.334;21.918;2023-04-10T14:29:12;16.6;100.0
22674;DHT22;11504;43.334;21.918;2023-04-10T14:33:49;16.6;100.0
22674;DHT22;11504;43.334;21.918;2023-04-10T14:38:26;16.6;100.0
22674;DHT22;11504;43.334;21.918;2023-04-10T14:43:03;16.5;100.0
22674;DHT22;11504;43.334;21.918;2023-04-10T14:47:40;16.5;100.0
22674;DHT22;11504;43.334;21.918;2023-04-10T14:52:16;16.3;100.0
22674;DHT22;11504;43.334;21.918;2023-04-10T14:56:53;16.3;100.0
22674;DHT22;11504;43.334;21.918;2023-04-10T15:01:29;16.1;100.0
22674;DHT22;11504;43.334;21.918;2023-04-10T15:06:06;16.1;100.0
22674;DHT22;11504;43.334;21.918;2023-04-10T15:10:43;15.6;100.0
22674;DHT22;11504;43.334;21.918;2023-04-10T15:15:19;15.6;100.0
22674;DHT22;11504;43.334;21.918;2023-04-10T15:19:56;15.1;100.0
22674;DHT22;11504;43.334;21.918;2023-04-10T15:24:33;15.1;100.0
22674;DHT22;11504;43.334;21.918;2023-04-10T15:29:10;14.6;100.0
22674;DHT22;11504;43.334;21.918;2023-04-10T15:33:49;14.6;100.0
22674;DHT22;11504;43.334;21.918;2023-04-10T15:38:27;14.6;100.0
22674;DHT22;11504;43.334;21.918;2023-04-10T15:43:06;14.0;100.0
22674;DHT22;11504;43.334;21.918;2023-04-10T15:47:45;14.0;100.0
22674;DHT22;11504;43.334;21.918;2023-04-10T15:52:22;13.6;100.0
22674;DHT22;11504;43.334;21.918;2023-04-10T15:57:00;13.6;100.0
22674;DHT22;11504;43.334;21.918;2023-04-10T16:01:43;13.1;100.0
22674;DHT22;11504;43.334;21.918;2023-04-10T16:06:20;13.1;100.0
22674;DHT22;11504;43.334;21.918;2023-04-10T16:10:56;12.9;100.0
22674;DHT22;11504;43.334;21.918;2023-04-10T16:15:33;12.9;100.0
22674;DHT22;11504;43.334;21.918;2023-04-10T16:20:14;12.7;100.0
22674;DHT22;11504;43.334;21.918;2023-04-10T16:24:54;12.7;100.0
22674;DHT22;11504;43.334;21.918;2023-04-10T16:29:32;12.5;100.0
22674;DHT22;11504;43.334;21.918;2023-04-10T16:34:09;12.5;100.0
22674;DHT22;11504;43.334;21.918;2023-04-10T16:38:46;12.3;100.0
22674;DHT22;11504;43.334;21.918;2023-04-10T16:43:23;12.3;100.0
22674;DHT22;11504;43.334;21.918;2023-04-10T16:48:00;12.3;100.0
22674;DHT22;11504;43.334;21.918;2023-04-10T16:52:36;12.2;100.0
22674;DHT22;11504;43.334;21.918;2023-04-10T16:57:13;12.2;100.0
22674;DHT22;11504;43.334;21.918;2023-04-10T17:01:50;12.1;100.0
22674;DHT22;11504;43.334;21.918;2023-04-10T17:06:27;12.1;100.0
22674;DHT22;11504;43.334;21.918;2023-04-10T17:11:04;12.0;100.0
22674;DHT22;11504;43.334;21.918;2023-04-10T17:15:42;12.0;100.0
22674;DHT22;11504;43.334;21.918;2023-04-10T17:20:19;11.9;100.0
22674;DHT22;11504;43.334;21.918;2023-04-10T17:24:55;11.9;100.0
22674;DHT22;11504;43.334;21.918;2023-04-10T17:29:34;11.8;100.0
22674;DHT22;11504;43.334;21.918;2023-04-10T17:34:12;11.8;100.0
22674;DHT22;11504;43.334;21.918;2023-04-10T17:38:49;11.8;100.0
22674;DHT22;11504;43.334;21.918;2023-04-10T17:43:26;11.6;100.0
22674;DHT22;11504;43.334;21.918;2023-04-10T17:48:02;11.6;100.0
22674;DHT22;11504;43.334;21.918;2023-04-10T17:52:41;11.6;100.0
22674;DHT22;11504;43.334;21.918;2023-04-10T17:57:18;11.6;100.0
22674;DHT22;11504;43.334;21.918;2023-04-10T18:01:54;11.5;100.0
22674;DHT22;11504;43.334;21.918;2023-04-10T18:06:31;11.5;100.0
22674;DHT22;11504;43.334;21.918;2023-04-10T18:11:08;11.5;100.0
22674;DHT22;11504;43.334;21.918;2023-04-10T18:15:45;11.5;100.0
22674;DHT22;11504;43.334;21.918;2023-04-10T18:20:22;11.5;100.0
22674;DHT22;11504;43.334;21.918;2023-04-10T18:24:59;11.5;100.0
22674;DHT22;11504;43.334;21.918;2023-04-10T18:29:36;11.4;100.0
22674;DHT22;11504;43.334;21.918;2023-04-10T18:34:13;11.4;100.0
22674;DHT22;11504;43.334;21.918;2023-04-10T18:38:50;11.4;100.0
22674;DHT22;11504;43.334;21.918;2023-04-10T18:43:27;11.2;100.0
22674;DHT22;11504;43.334;21.918;2023-04-10T18:48:04;11.2;100.0
22674;DHT22;11504;43.334;21.918;2023-04-10T18:52:40;11.2;100.0
22674;DHT22;11504;43.334;21.918;2023-04-10T18:57:17;11.2;100.0
22674;DHT22;11504;43.334;21.918;2023-04-10T19:01:53;11.3;100.0
22674;DHT22;11504;43.334;21.918;2023-04-10T19:06:30;11.3;100.0
22674;DHT22;11504;43.334;21.918;2023-04-10T19:11:07;11.2;100.0
22674;DHT22;11504;43.334;21.918;2023-04-10T19:15:45;11.2;100.0
22674;DHT22;11504;43.334;21.918;2023-04-10T19:20:23;11.2;100.0
22674;DHT22;11504;43.334;21.918;2023-04-10T19:25:00;11.2;100.0
22674;DHT22;11504;43.334;21.918;2023-04-10T19:29:38;11.3;100.0
22674;DHT22;11504;43.334;21.918;2023-04-10T19:34:14;11.3;100.0
22674;DHT22;11504;43.334;21.918;2023-04-10T19:38:51;11.3;100.0
22674;DHT22;11504;43.334;21.918;2023-04-10T19:43:27;11.4;100.0
22674;DHT22;11504;43.334;21.918;2023-04-10T19:48:04;11.4;100.0
22674;DHT22;11504;43.334;21.918;2023-04-10T19:52:42;11.5;100.0
22674;DHT22;11504;43.334;21.918;2023-04-10T19:57:18;11.5;100.0
22674;DHT22;11504;43.334;21.918;2023-04-10T20:01:56;11.6;100.0
22674;DHT22;11504;43.334;21.918;2023-04-10T20:06:33;11.6;100.0
22674;DHT22;11504;43.334;21.918;2023-04-10T20:11:10;11.8;100.0
22674;DHT22;11504;43.334;21.918;2023-04-10T20:15:47;11.8;100.0
22674;DHT22;11504;43.334;21.918;2023-04-10T20:20:24;11.9;100.0
22674;DHT22;11504;43.334;21.918;2023-04-10T20:25:01;11.9;100.0
22674;DHT22;11504;43.334;21.918;2023-04-10T20:29:37;11.8;100.0
22674;DHT22;11504;43.334;21.918;2023-04-10T20:34:13;11.8;100.0
22674;DHT22;11504;43.334;21.918;2023-04-10T20:38:50;11.8;100.0
22674;DHT22;11504;43.334;21.918;2023-04-10T20:43:27;11.6;100.0
22674;DHT22;11504;43.334;21.918;2023-04-10T20:48:04;11.6;100.0
22674;DHT22;11504;43.334;21.918;2023-04-10T20:52:43;11.4;100.0
22674;DHT22;11504;43.334;21.918;2023-04-10T20:57:20;11.4;100.0
22674;DHT22;11504;43.334;21.918;2023-04-10T21:01:57;11.1;100.0
22674;DHT22;11504;43.334;21.918;2023-04-10T21:06:34;11.1;100.0
22674;DHT22;11504;43.334;21.918;2023-04-10T21:11:11;11.0;100.0
22674;DHT22;11504;43.334;21.918;2023-04-10T21:15:48;11.0;100.0
22674;DHT22;11504;43.334;21.918;2023-04-10T21:20:26;11.0;100.0
22674;DHT22;11504;43.334;21.918;2023-04-10T21:25:03;11.0;100.0
22674;DHT22;11504;43.334;21.918;2023-04-10T21:29:43;11.0;100.0
22674;DHT22;11504;43.334;21.918;2023-04-10T21:34:21;11.0;100.0
22674;DHT22;11504;43.334;21.918;2023-04-10T21:38:57;11.0;100.0
22674;DHT22;11504;43.334;21.918;2023-04-10T21:43:34;11.0;100.0
22674;DHT22;11504;43.334;21.918;2023-04-10T21:48:10;11.0;100.0
22674;DHT22;11504;43.334;21.918;2023-04-10T21:52:47;11.1;100.0
22674;DHT22;11504;43.334;21.918;2023-04-10T21:57:23;11.1;100.0
22674;DHT22;11504;43.334;21.918;2023-04-10T22:02:00;11.2;100.0
22674;DHT22;11504;43.334;21.918;2023-04-10T22:06:36;11.2;100.0
22674;DHT22;11504;43.334;21.918;2023-04-10T22:11:13;11.1;100.0
22674;DHT22;11504;43.334;21.918;2023-04-10T22:15:50;11.1;100.0
22674;DHT22;11504;43.334;21.918;2023-04-10T22:20:27;11.1;100.0
22674;DHT22;11504;43.334;21.918;2023-04-10T22:25:04;11.1;100.0
22674;DHT22;11504;43.334;21.918;2023-04-10T22:29:44;11.1;100.0
22674;DHT22;11504;43.334;21.918;2023-04-10T22:34:21;11.1;100.0
22674;DHT22;11504;43.334;21.918;2023-04-10T22:38:58;11.1;100.0
22674;DHT22;11504;43.334;21.918;2023-04-10T22:43:34;11.2;100.0
22674;DHT22;11504;43.334;21.918;2023-04-10T22:48:11;11.2;100.0
22674;DHT22;11504;43.334;21.918;2023-04-10T22:52:47;11.2;100.0
22674;DHT22;11504;43.334;21.918;2023-04-10T22:57:24;11.2;100.0
22674;DHT22;11504;43.334;21.918;2023-04-10T23:02:00;11.2;100.0
22674;DHT22;11504;43.334;21.918;2023-04-10T23:06:36;11.2;100.0
22674;DHT22;11504;43.334;21.918;2023-04-10T23:11:12;11.2;100.0
22674;DHT22;11504;43.334;21.918;2023-04-10T23:15:50;11.2;100.0
22674;DHT22;11504;43.334;21.918;2023-04-10T23:20:31;11.2;100.0
22674;DHT22;11504;43.334;21.918;2023-04-10T23:25:07;11.2;100.0
22674;DHT22;11504;43.334;21.918;2023-04-10T23:29:45;11.1;100.0
22674;DHT22;11504;43.334;21.918;2023-04-10T23:34:24;11.1;100.0
22674;DHT22;11504;43.334;21.918;2023-04-10T23:39:01;11.1;100.0
22674;DHT22;11504;43.334;21.918;2023-04-10T23:43:38;11.1;100.0
22674;DHT22;11504;43.334;21.918;2023-04-10T23:48:15;11.1;100.0
22674;DHT22;11504;43.334;21.918;2023-04-10T23:52:52;11.0;100.0
22674;DHT22;11504;43.334;21.918;2023-04-10T23:57:28;11.0;100.0
